OME - Nome

Pirep is a free, collaborative database of all public and private airports located within the United States. All pilots are welcome to contribute, edit, and improve any airport they have local knowledge about, no registration required.
Are you familiar with this airport? Help out other pilots by adding your local knowledge.
Uploaded photos will be licensed under a CC BY-SA 4.0 license. Please only upload photos you have the rights to use.
Tags
Public
Undocu­mented
METAR / TAF
Webcam
Edit Tags
Food
Camping
Lodging
Car Rental
Bicycles
Swimming
Golfing
Fishing
Hot Springs
Museum
Flying Clubs
Airpark
Upcoming Events
No upcoming events. Is anything happening here soon?
*
*
*

Where exactly on/near the airport is this event taking place?

Is there a webpage with more information for this event?

Who should be contacted for more information?

What is this event all about?

Repeat every
Description
Transient Parking
Fuel Location
Landing & Tie-down Fees
Crew Car Availability
Flying Clubs
WiFi Access
Airport Statistics
Location: Nome, AK
Elevation: 40ft
Sectional: Nome
Fuel: 100LL, A, A1+ (prices)
Runway 03/21: 6,176ft
Runway 10/28: 6,009ft
Access: Open to the public
Current Weather — VFR
  • Weather data is strictly informational and not for flight planning purposes.
  • METAR
    2024-05-24 16:53:00 AKDT
    Ceiling Wind Temperature Dewpoint Weather Visbility
    10,000ft 40° @ 14kt 51°F 37°F N/A 10SM
    Clouds: Broken @ 10,000ft
    Raw: PAOM 250053Z 04014KT 10SM BKN100 11/03 A2971 RMK AO2 SLP060 T01060028
  • TAF
    2024-05-24 16:00:00 AKDT – 2024-05-24 19:00:00 AKDT
    Ceiling Wind Weather Visbility
    Sky clear 40° @ 18kt, gusts 26kt N/A 6SM
    Clouds: Scattered @ 7,000ft
    Raw: PAOM 242337Z 2500/2524 04018G26KT P6SM SCT070 FM250300 36015KT P6SM BKN100 FM251000 35008KT P6SM BKN100 FM252200 01011KT P6SM BKN100
  • TAF
    2024-05-24 19:00:00 AKDT – 2024-05-25 02:00:00 AKDT
    Ceiling Wind Weather Visbility
    10,000ft 360° @ 15kt N/A 6SM
    Clouds: Broken @ 10,000ft
    Raw: PAOM 242337Z 2500/2524 04018G26KT P6SM SCT070 FM250300 36015KT P6SM BKN100 FM251000 35008KT P6SM BKN100 FM252200 01011KT P6SM BKN100
  • TAF
    2024-05-25 02:00:00 AKDT – 2024-05-25 14:00:00 AKDT
    Ceiling Wind Weather Visbility
    10,000ft 350° @ 8kt N/A 6SM
    Clouds: Broken @ 10,000ft
    Raw: PAOM 242337Z 2500/2524 04018G26KT P6SM SCT070 FM250300 36015KT P6SM BKN100 FM251000 35008KT P6SM BKN100 FM252200 01011KT P6SM BKN100
  • TAF
    2024-05-25 14:00:00 AKDT – 2024-05-25 16:00:00 AKDT
    Ceiling Wind Weather Visbility
    10,000ft 10° @ 11kt N/A 6SM
    Clouds: Broken @ 10,000ft
    Raw: PAOM 242337Z 2500/2524 04018G26KT P6SM SCT070 FM250300 36015KT P6SM BKN100 FM251000 35008KT P6SM BKN100 FM252200 01011KT P6SM BKN100
Click/tap to add an annotation marker to the map
Direct links to live image URLs will be displayed inline on this page. URLs to separate webpages will be linked to.
URL:
Direct links to live image URLs will be displayed inline on this page. URLs to separate webpages will be linked to.
URL:
Remarks
  • Arff svc durg acr ops only; acr ops more than 30 pax seats ppr in writing - amgr po box 1048 nome ak 99762.
  • Rwy 03/21 & 10/28 lgts height 30 inches above gnd.
  • Airfield maint svcs avbl 0700 -1730; aft hr - amgr.
  • Ang: avn operg fac - ang hngr 907-387-1800. ops 1700-0100z; ltd maint & svcs avbl.
  • Rwy conditions report during duty hrs.
Comments
Leave a comment What was your experience like at this airport?